Flight Track Log - Related Links

Times and Time Zones

All times are in EDT time to prevent confusion due to time zone crossing. See the WIG7117 flight status page for this flight to view local times or setup timezone preferences in your user account.

Time Position Orientation Groundspeed Altitude Reporting Facility
EDT Latitude Longitude Course Direction KTS MPH feet Rate Location/Type
Wed 10:08:00 PM 42.7403 -73.8111 282° West 70 81 800  Level Boston Center
Wed 10:09:07 PM 42.7461 -73.8481 282° West 104 120 1,800 984 Climbing Boston Center
Wed 10:10:08 PM 42.7517 -73.8850 282° West 109 125 2,900 992 Climbing Boston Center
Wed 10:11:08 PM 42.7594 -73.9275 284° West 108 124 3,800 893 Climbing Boston Center
Wed 10:12:09 PM 42.7675 -73.9644 287° West 109 125 4,700 885 Climbing Boston Center
Wed 10:13:10 PM 42.7731 -74.0069 280° West 109 125 5,600 885 Climbing Boston Center
Wed 10:14:11 PM 42.7808 -74.0469 285° West 110 127 6,500 893 Climbing Boston Center
Wed 10:15:11 PM 42.7864 -74.0894 280° West 110 127 7,400 744 Climbing Boston Center
Wed 10:16:12 PM 42.7942 -74.1322 284° West 113 130 8,000 295 Climbing Boston Center
Wed 10:17:13 PM 42.8039 -74.1778 286° West 130 150 8,000  Level Boston Center
Wed 10:18:13 PM 42.8114 -74.2289 281° West 132 152 8,000  Level Boston Center
Wed 10:19:14 PM 42.8169 -74.2742 280° West 125 144 8,000  Level Boston Center
Wed 10:20:09 PM 42.8267 -74.3228 285° West 132 152 8,000  Level Boston Center
Wed 10:21:34 PM 42.8381 -74.3911 283° West 131 151 8,000  Level Boston Center
Wed 10:22:34 PM 42.8475 -74.4394 285° West 131 151 8,000  Level Boston Center
Wed 10:23:35 PM 42.8550 -74.4878 282° West 131 151 8,000  Level Boston Center
Wed 10:24:36 PM 42.8606 -74.5361 279° West 131 151 8,000  Level Boston Center
Wed 10:25:36 PM 42.8700 -74.5847 285° West 129 148 8,000  Level Boston Center
Wed 10:26:37 PM 42.8775 -74.6331 282° West 126 145 8,000  Level Boston Center
Wed 10:27:38 PM 42.8869 -74.6817 285° West 132 152 8,000  Level Boston Center
Wed 10:28:38 PM 42.8942 -74.7300 282° West 131 151 8,000  Level Boston Center
Wed 10:29:39 PM 42.9036 -74.7786 285° West 130 150 8,000  Level Boston Center
Wed 10:30:40 PM 42.9131 -74.8272 285° West 133 153 8,000  Level Boston Center
Wed 10:31:40 PM 42.9203 -74.8756 282° West 133 153 8,000  Level Boston Center
Wed 10:32:41 PM 42.9278 -74.9214 283° West 128 147 8,000  Level Boston Center
Wed 10:33:41 PM 42.9369 -74.9728 284° West 127 146 8,000  Level Boston Center
Wed 10:34:42 PM 42.9422 -75.0211 279° West 129 148 8,000  Level Boston Center
Wed 10:35:43 PM 42.9517 -75.0669 286° West 131 151 8,000  Level Boston Center
Wed 10:36:43 PM 42.9586 -75.1183 280° West 131 151 8,000  Level Boston Center
Wed 10:37:50 PM 42.9658 -75.1697 281° West 131 151 8,000  Level Boston Center
Wed 10:38:51 PM 42.9772 -75.2186 288° West 129 148 8,000  Level Boston Center
Wed 10:39:57 PM 42.9822 -75.2697 278° West 126 145 8,000  Level Boston Center
Wed 10:40:58 PM 42.9892 -75.3183 281° West 129 148 8,000  Level Boston Center
Wed 10:41:53 PM 42.9964 -75.3642 282° West 129 148 8,000  Level Boston Center
Wed 10:42:47 PM 43.0036 -75.4072 283° West 128 147 8,000 -730 Level Boston Center
Wed 10:43:48 PM 43.0147 -75.4644 285° West 160 184 6,600 -1,082 Descending Boston Center
Wed 10:44:49 PM 43.0214 -75.5244 279° West 162 186 5,800 -850 Descending Boston Center
Wed 10:45:55 PM 43.0322 -75.5875 283° West 154 177 4,800 -850 Descending Boston Center
Wed 10:46:56 PM 43.0389 -75.6475 279° West 154 177 4,000 -744 Descending Boston Center
Wed 10:47:56 PM 43.0478 -75.6992 283° West 148 170 3,300 -496 Descending Boston Center
Wed 10:48:57 PM 43.0694 -75.7458 302° West 137 158 3,000 -103 Descending Boston Center
Wed 10:49:52 PM 43.0764 -75.7889 282° West 121 139 3,100  Climbing Boston Center
Wed 10:50:52 PM 43.0856 -75.8319 286° West 122 140 3,000 -298 Descending Boston Center
Wed 10:51:53 PM 43.0967 -75.8808 287° West 136 157 2,500 -295 Descending Boston Center
Wed 10:52:54 PM 43.1078 -75.9300 287° West 136 157 2,400 -248 Descending Boston Center
Wed 10:53:54 PM 43.1125 -75.9756 278° West 126 145 2,000 -397 Descending Boston Center
Wed 10:54:55 PM 43.1114 -76.0156 268° West 89 102 1,600 -446 Descending Boston Center
Wed 10:55:55 PM 43.1103 -76.0494 267° West 83 96 1,100 -496 Descending Boston Center
Wed 10:56:56 PM 43.1092 -76.0836 267° West 93 107 600 -492 Descending Boston Center
Wed 10:58:00 PM 43.1000 -76.1000 270° West  Level FlightAware Approximate
Wed 11:05:00 PM 43.1112 -76.1063 270° West  Level Estimated
Wed 11:06:00 PM 43.1112 -76.1063 270° West  Level Estimated
Wed 11:07:00 PM 43.1112 -76.1063 270° West  Level Estimated
Wed 11:08:00 PM 43.1112 -76.1063 270° West  Level Estimated
Wed 11:09:00 PM 43.1112 -76.1063 270° West  Level Estimated
Wed 11:10:00 PM 43.1112 -76.1063 270° West  Level Estimated

Login

Don't have an account? Register now (free) for customized features, flight alerts, and more!